sensor_id;sensor_type;location;lat;lon;timestamp;P1;durP1;ratioP1;P2;durP2;ratioP2
18879;SDS011;9572;52.378;13.404;2023-06-04T00:00:08;11.70;;;5.40;;
18879;SDS011;9572;52.378;13.404;2023-06-04T00:02:36;6.47;;;4.13;;
18879;SDS011;9572;52.378;13.404;2023-06-04T00:05:03;5.53;;;3.70;;
18879;SDS011;9572;52.378;13.404;2023-06-04T00:07:30;4.70;;;3.00;;
18879;SDS011;9572;52.378;13.404;2023-06-04T00:09:57;4.70;;;2.93;;
18879;SDS011;9572;52.378;13.404;2023-06-04T00:12:24;6.80;;;2.43;;
18879;SDS011;9572;52.378;13.404;2023-06-04T00:14:52;3.70;;;2.70;;
18879;SDS011;9572;52.378;13.404;2023-06-04T00:17:19;6.50;;;2.27;;
18879;SDS011;9572;52.378;13.404;2023-06-04T00:19:46;2.90;;;2.00;;
18879;SDS011;9572;52.378;13.404;2023-06-04T00:22:13;2.13;;;1.90;;
18879;SDS011;9572;52.378;13.404;2023-06-04T00:24:40;2.50;;;1.80;;
18879;SDS011;9572;52.378;13.404;2023-06-04T00:27:07;3.50;;;1.67;;
18879;SDS011;9572;52.378;13.404;2023-06-04T00:29:35;2.13;;;1.60;;
18879;SDS011;9572;52.378;13.404;2023-06-04T00:32:04;3.83;;;1.60;;
18879;SDS011;9572;52.378;13.404;2023-06-04T00:34:31;2.80;;;1.77;;
18879;SDS011;9572;52.378;13.404;2023-06-04T00:36:58;3.00;;;1.83;;
18879;SDS011;9572;52.378;13.404;2023-06-04T00:39:26;2.10;;;1.90;;
18879;SDS011;9572;52.378;13.404;2023-06-04T00:41:54;3.40;;;1.90;;
18879;SDS011;9572;52.378;13.404;2023-06-04T00:44:21;3.23;;;2.33;;
18879;SDS011;9572;52.378;13.404;2023-06-04T00:46:50;3.10;;;1.90;;
18879;SDS011;9572;52.378;13.404;2023-06-04T00:49:20;2.43;;;1.40;;
18879;SDS011;9572;52.378;13.404;2023-06-04T00:51:46;2.30;;;1.70;;
18879;SDS011;9572;52.378;13.404;2023-06-04T00:54:13;2.40;;;1.80;;
18879;SDS011;9572;52.378;13.404;2023-06-04T00:56:43;2.00;;;1.67;;
18879;SDS011;9572;52.378;13.404;2023-06-04T00:59:09;1.90;;;1.70;;
18879;SDS011;9572;52.378;13.404;2023-06-04T01:01:38;3.60;;;1.60;;
18879;SDS011;9572;52.378;13.404;2023-06-04T01:04:12;4.87;;;1.90;;
18879;SDS011;9572;52.378;13.404;2023-06-04T01:06:47;3.07;;;1.87;;
18879;SDS011;9572;52.378;13.404;2023-06-04T01:09:17;2.00;;;1.80;;
18879;SDS011;9572;52.378;13.404;2023-06-04T01:11:44;2.03;;;1.70;;
18879;SDS011;9572;52.378;13.404;2023-06-04T01:14:11;2.23;;;2.00;;
18879;SDS011;9572;52.378;13.404;2023-06-04T01:16:39;2.97;;;1.90;;
18879;SDS011;9572;52.378;13.404;2023-06-04T01:19:12;2.47;;;1.90;;
18879;SDS011;9572;52.378;13.404;2023-06-04T01:22:04;3.37;;;1.93;;
18879;SDS011;9572;52.378;13.404;2023-06-04T01:24:41;3.47;;;2.00;;
18879;SDS011;9572;52.378;13.404;2023-06-04T01:27:13;2.23;;;1.87;;
18879;SDS011;9572;52.378;13.404;2023-06-04T01:29:40;3.67;;;1.87;;
18879;SDS011;9572;52.378;13.404;2023-06-04T01:32:09;3.33;;;1.80;;
18879;SDS011;9572;52.378;13.404;2023-06-04T01:34:43;3.07;;;1.80;;
18879;SDS011;9572;52.378;13.404;2023-06-04T01:37:11;2.67;;;2.00;;
18879;SDS011;9572;52.378;13.404;2023-06-04T01:39:38;2.53;;;1.93;;
18879;SDS011;9572;52.378;13.404;2023-06-04T01:42:06;2.83;;;1.83;;
18879;SDS011;9572;52.378;13.404;2023-06-04T01:44:33;4.13;;;2.10;;
18879;SDS011;9572;52.378;13.404;2023-06-04T01:47:00;3.73;;;1.83;;
18879;SDS011;9572;52.378;13.404;2023-06-04T01:49:27;2.93;;;2.10;;
18879;SDS011;9572;52.378;13.404;2023-06-04T01:51:54;2.27;;;2.00;;
18879;SDS011;9572;52.378;13.404;2023-06-04T01:54:22;2.37;;;1.80;;
18879;SDS011;9572;52.378;13.404;2023-06-04T01:56:49;2.57;;;1.90;;
18879;SDS011;9572;52.378;13.404;2023-06-04T01:59:16;2.37;;;2.00;;
18879;SDS011;9572;52.378;13.404;2023-06-04T02:01:43;3.23;;;1.97;;
18879;SDS011;9572;52.378;13.404;2023-06-04T02:04:10;2.20;;;1.73;;
18879;SDS011;9572;52.378;13.404;2023-06-04T02:06:37;3.60;;;1.83;;
18879;SDS011;9572;52.378;13.404;2023-06-04T02:09:04;2.73;;;2.00;;
18879;SDS011;9572;52.378;13.404;2023-06-04T02:11:32;5.73;;;2.10;;
18879;SDS011;9572;52.378;13.404;2023-06-04T02:13:59;2.53;;;1.90;;
18879;SDS011;9572;52.378;13.404;2023-06-04T02:16:26;3.10;;;1.90;;
18879;SDS011;9572;52.378;13.404;2023-06-04T02:18:53;1.97;;;1.63;;
18879;SDS011;9572;52.378;13.404;2023-06-04T02:21:20;2.63;;;1.90;;
18879;SDS011;9572;52.378;13.404;2023-06-04T02:23:47;2.90;;;2.03;;
18879;SDS011;9572;52.378;13.404;2023-06-04T02:26:14;2.20;;;2.00;;
18879;SDS011;9572;52.378;13.404;2023-06-04T02:28:42;3.10;;;2.03;;
18879;SDS011;9572;52.378;13.404;2023-06-04T02:31:09;3.07;;;2.00;;
18879;SDS011;9572;52.378;13.404;2023-06-04T02:33:36;1.90;;;1.70;;
18879;SDS011;9572;52.378;13.404;2023-06-04T02:36:04;1.93;;;1.73;;
18879;SDS011;9572;52.378;13.404;2023-06-04T02:38:31;1.87;;;1.53;;
18879;SDS011;9572;52.378;13.404;2023-06-04T02:40:58;2.63;;;1.93;;
18879;SDS011;9572;52.378;13.404;2023-06-04T02:43:25;2.73;;;1.93;;
18879;SDS011;9572;52.378;13.404;2023-06-04T02:45:53;2.93;;;1.90;;
18879;SDS011;9572;52.378;13.404;2023-06-04T02:48:20;1.97;;;1.53;;
18879;SDS011;9572;52.378;13.404;2023-06-04T02:50:47;2.33;;;2.00;;
18879;SDS011;9572;52.378;13.404;2023-06-04T02:53:14;3.00;;;2.13;;
18879;SDS011;9572;52.378;13.404;2023-06-04T02:55:41;2.67;;;1.87;;
18879;SDS011;9572;52.378;13.404;2023-06-04T02:58:07;2.27;;;1.83;;
18879;SDS011;9572;52.378;13.404;2023-06-04T03:00:34;2.30;;;1.57;;
18879;SDS011;9572;52.378;13.404;2023-06-04T03:03:03;2.43;;;1.60;;
18879;SDS011;9572;52.378;13.404;2023-06-04T03:05:30;1.90;;;1.37;;
18879;SDS011;9572;52.378;13.404;2023-06-04T03:07:58;2.77;;;1.60;;
18879;SDS011;9572;52.378;13.404;2023-06-04T03:10:27;2.20;;;1.53;;
18879;SDS011;9572;52.378;13.404;2023-06-04T03:12:54;1.80;;;1.53;;
18879;SDS011;9572;52.378;13.404;2023-06-04T03:15:21;2.50;;;1.60;;
18879;SDS011;9572;52.378;13.404;2023-06-04T03:17:47;2.10;;;1.40;;
18879;SDS011;9572;52.378;13.404;2023-06-04T03:20:17;2.20;;;1.57;;
18879;SDS011;9572;52.378;13.404;2023-06-04T03:22:44;2.73;;;1.70;;
18879;SDS011;9572;52.378;13.404;2023-06-04T03:25:11;2.77;;;1.57;;
18879;SDS011;9572;52.378;13.404;2023-06-04T03:27:38;2.30;;;1.63;;
18879;SDS011;9572;52.378;13.404;2023-06-04T03:30:05;3.00;;;1.90;;
18879;SDS011;9572;52.378;13.404;2023-06-04T03:32:33;5.20;;;1.97;;
18879;SDS011;9572;52.378;13.404;2023-06-04T03:35:00;3.23;;;1.87;;
18879;SDS011;9572;52.378;13.404;2023-06-04T03:37:29;3.73;;;1.80;;
18879;SDS011;9572;52.378;13.404;2023-06-04T03:39:57;3.33;;;1.60;;
18879;SDS011;9572;52.378;13.404;2023-06-04T03:42:24;2.70;;;1.73;;
18879;SDS011;9572;52.378;13.404;2023-06-04T03:44:51;2.10;;;1.83;;
18879;SDS011;9572;52.378;13.404;2023-06-04T03:47:18;3.50;;;1.93;;
18879;SDS011;9572;52.378;13.404;2023-06-04T03:49:45;2.77;;;1.70;;
18879;SDS011;9572;52.378;13.404;2023-06-04T03:52:12;5.07;;;1.70;;
18879;SDS011;9572;52.378;13.404;2023-06-04T03:54:40;3.17;;;1.90;;
18879;SDS011;9572;52.378;13.404;2023-06-04T03:57:07;4.53;;;2.17;;
18879;SDS011;9572;52.378;13.404;2023-06-04T03:59:34;3.03;;;1.70;;
18879;SDS011;9572;52.378;13.404;2023-06-04T04:02:01;2.83;;;1.77;;
18879;SDS011;9572;52.378;13.404;2023-06-04T04:04:28;2.10;;;1.70;;
18879;SDS011;9572;52.378;13.404;2023-06-04T04:06:55;2.27;;;1.70;;
18879;SDS011;9572;52.378;13.404;2023-06-04T04:09:22;1.60;;;1.50;;
18879;SDS011;9572;52.378;13.404;2023-06-04T04:11:50;2.27;;;1.60;;
18879;SDS011;9572;52.378;13.404;2023-06-04T04:14:17;2.80;;;1.67;;
18879;SDS011;9572;52.378;13.404;2023-06-04T04:16:44;4.20;;;1.80;;
18879;SDS011;9572;52.378;13.404;2023-06-04T04:19:11;2.33;;;1.70;;
18879;SDS011;9572;52.378;13.404;2023-06-04T04:21:37;3.13;;;1.70;;
18879;SDS011;9572;52.378;13.404;2023-06-04T04:24:04;2.17;;;1.60;;
18879;SDS011;9572;52.378;13.404;2023-06-04T04:26:32;2.37;;;1.70;;
18879;SDS011;9572;52.378;13.404;2023-06-04T04:29:00;2.93;;;1.70;;
18879;SDS011;9572;52.378;13.404;2023-06-04T04:31:27;2.80;;;1.93;;
18879;SDS011;9572;52.378;13.404;2023-06-04T04:33:55;3.87;;;2.17;;
18879;SDS011;9572;52.378;13.404;2023-06-04T04:36:22;2.10;;;1.90;;
18879;SDS011;9572;52.378;13.404;2023-06-04T04:38:49;3.10;;;1.70;;
18879;SDS011;9572;52.378;13.404;2023-06-04T04:41:19;3.60;;;2.03;;
18879;SDS011;9572;52.378;13.404;2023-06-04T04:43:46;2.63;;;1.80;;
18879;SDS011;9572;52.378;13.404;2023-06-04T04:46:14;4.50;;;1.60;;
18879;SDS011;9572;52.378;13.404;2023-06-04T04:48:41;2.60;;;1.67;;
18879;SDS011;9572;52.378;13.404;2023-06-04T04:51:08;4.37;;;2.00;;
18879;SDS011;9572;52.378;13.404;2023-06-04T04:53:35;1.90;;;1.50;;
18879;SDS011;9572;52.378;13.404;2023-06-04T04:56:01;1.70;;;1.60;;
18879;SDS011;9572;52.378;13.404;2023-06-04T04:58:28;2.30;;;1.47;;
18879;SDS011;9572;52.378;13.404;2023-06-04T05:00:55;2.43;;;1.60;;
18879;SDS011;9572;52.378;13.404;2023-06-04T05:03:23;1.70;;;1.30;;
18879;SDS011;9572;52.378;13.404;2023-06-04T05:05:50;2.30;;;1.70;;
18879;SDS011;9572;52.378;13.404;2023-06-04T05:08:17;1.77;;;1.40;;
18879;SDS011;9572;52.378;13.404;2023-06-04T05:10:44;3.27;;;1.90;;
18879;SDS011;9572;52.378;13.404;2023-06-04T05:13:11;3.17;;;1.70;;
18879;SDS011;9572;52.378;13.404;2023-06-04T05:15:38;3.47;;;1.60;;
18879;SDS011;9572;52.378;13.404;2023-06-04T05:18:07;3.17;;;1.60;;
18879;SDS011;9572;52.378;13.404;2023-06-04T05:20:35;3.50;;;1.90;;
18879;SDS011;9572;52.378;13.404;2023-06-04T05:23:02;2.53;;;1.77;;
18879;SDS011;9572;52.378;13.404;2023-06-04T05:25:30;3.93;;;1.90;;
18879;SDS011;9572;52.378;13.404;2023-06-04T05:27:56;2.83;;;1.73;;
18879;SDS011;9572;52.378;13.404;2023-06-04T05:30:23;3.00;;;1.73;;
18879;SDS011;9572;52.378;13.404;2023-06-04T05:32:51;2.13;;;1.70;;
18879;SDS011;9572;52.378;13.404;2023-06-04T05:35:18;4.80;;;2.30;;
18879;SDS011;9572;52.378;13.404;2023-06-04T05:37:47;4.80;;;1.93;;
18879;SDS011;9572;52.378;13.404;2023-06-04T05:40:19;2.33;;;1.80;;
18879;SDS011;9572;52.378;13.404;2023-06-04T05:42:47;4.27;;;1.80;;
18879;SDS011;9572;52.378;13.404;2023-06-04T05:45:14;4.20;;;1.77;;
18879;SDS011;9572;52.378;13.404;2023-06-04T05:47:41;4.50;;;1.60;;
18879;SDS011;9572;52.378;13.404;2023-06-04T05:50:08;3.90;;;2.00;;
18879;SDS011;9572;52.378;13.404;2023-06-04T05:52:35;3.35;;;1.80;;
18879;SDS011;9572;52.378;13.404;2023-06-04T05:55:04;1.75;;;1.42;;
18879;SDS011;9572;52.378;13.404;2023-06-04T05:57:33;8.13;;;2.15;;
18879;SDS011;9572;52.378;13.404;2023-06-04T05:59:59;5.85;;;2.00;;
18879;SDS011;9572;52.378;13.404;2023-06-04T06:02:26;3.30;;;1.38;;
18879;SDS011;9572;52.378;13.404;2023-06-04T06:04:53;3.17;;;2.05;;
18879;SDS011;9572;52.378;13.404;2023-06-04T06:07:21;3.85;;;1.50;;
18879;SDS011;9572;52.378;13.404;2023-06-04T06:09:48;3.30;;;1.60;;
18879;SDS011;9572;52.378;13.404;2023-06-04T06:12:16;3.83;;;1.70;;
18879;SDS011;9572;52.378;13.404;2023-06-04T06:14:43;5.20;;;1.95;;
18879;SDS011;9572;52.378;13.404;2023-06-04T06:17:10;3.13;;;1.73;;
18879;SDS011;9572;52.378;13.404;2023-06-04T06:19:36;2.72;;;1.80;;
18879;SDS011;9572;52.378;13.404;2023-06-04T06:22:03;2.22;;;1.50;;
18879;SDS011;9572;52.378;13.404;2023-06-04T06:24:30;5.15;;;1.67;;
18879;SDS011;9572;52.378;13.404;2023-06-04T06:26:57;3.70;;;1.63;;
18879;SDS011;9572;52.378;13.404;2023-06-04T06:29:25;4.72;;;1.50;;
18879;SDS011;9572;52.378;13.404;2023-06-04T06:31:52;3.50;;;1.58;;
18879;SDS011;9572;52.378;13.404;2023-06-04T06:34:19;4.63;;;1.25;;
18879;SDS011;9572;52.378;13.404;2023-06-04T06:36:46;2.35;;;1.20;;
18879;SDS011;9572;52.378;13.404;2023-06-04T06:39:13;6.45;;;1.23;;
18879;SDS011;9572;52.378;13.404;2023-06-04T06:41:40;4.65;;;1.40;;
18879;SDS011;9572;52.378;13.404;2023-06-04T06:44:07;4.03;;;1.50;;
18879;SDS011;9572;52.378;13.404;2023-06-04T06:46:35;3.13;;;1.13;;
18879;SDS011;9572;52.378;13.404;2023-06-04T06:49:02;4.35;;;1.27;;
18879;SDS011;9572;52.378;13.404;2023-06-04T06:51:29;3.40;;;1.10;;
18879;SDS011;9572;52.378;13.404;2023-06-04T06:53:56;4.40;;;1.17;;
18879;SDS011;9572;52.378;13.404;2023-06-04T06:56:23;1.42;;;1.00;;
18879;SDS011;9572;52.378;13.404;2023-06-04T06:58:50;1.30;;;0.80;;
18879;SDS011;9572;52.378;13.404;2023-06-04T07:01:17;8.68;;;1.17;;
18879;SDS011;9572;52.378;13.404;2023-06-04T07:03:45;1.30;;;1.00;;
18879;SDS011;9572;52.378;13.404;2023-06-04T07:06:12;1.92;;;1.20;;
18879;SDS011;9572;52.378;13.404;2023-06-04T07:08:39;4.63;;;0.93;;
18879;SDS011;9572;52.378;13.404;2023-06-04T07:11:07;3.45;;;0.80;;
18879;SDS011;9572;52.378;13.404;2023-06-04T07:13:36;1.77;;;1.10;;
18879;SDS011;9572;52.378;13.404;2023-06-04T07:16:04;3.58;;;1.10;;
18879;SDS011;9572;52.378;13.404;2023-06-04T07:18:31;2.55;;;0.70;;
18879;SDS011;9572;52.378;13.404;2023-06-04T07:20:59;1.00;;;0.70;;
18879;SDS011;9572;52.378;13.404;2023-06-04T07:23:26;2.42;;;0.93;;
18879;SDS011;9572;52.378;13.404;2023-06-04T07:25:53;1.50;;;0.80;;
18879;SDS011;9572;52.378;13.404;2023-06-04T07:28:20;1.27;;;0.95;;
18879;SDS011;9572;52.378;13.404;2023-06-04T07:30:47;2.90;;;0.80;;
18879;SDS011;9572;52.378;13.404;2023-06-04T07:33:14;4.68;;;0.80;;
18879;SDS011;9572;52.378;13.404;2023-06-04T07:35:41;1.55;;;0.95;;
18879;SDS011;9572;52.378;13.404;2023-06-04T07:38:09;3.80;;;0.90;;
18879;SDS011;9572;52.378;13.404;2023-06-04T07:40:36;3.00;;;0.80;;
18879;SDS011;9572;52.378;13.404;2023-06-04T07:43:03;2.35;;;0.88;;
18879;SDS011;9572;52.378;13.404;2023-06-04T07:45:30;4.88;;;1.02;;
18879;SDS011;9572;52.378;13.404;2023-06-04T07:47:57;0.95;;;0.60;;
18879;SDS011;9572;52.378;13.404;2023-06-04T07:50:24;2.75;;;0.90;;
18879;SDS011;9572;52.378;13.404;2023-06-04T07:52:51;2.08;;;0.80;;
18879;SDS011;9572;52.378;13.404;2023-06-04T07:55:19;0.90;;;0.70;;
18879;SDS011;9572;52.378;13.404;2023-06-04T07:57:46;3.92;;;0.90;;
18879;SDS011;9572;52.378;13.404;2023-06-04T08:00:13;2.03;;;0.68;;
18879;SDS011;9572;52.378;13.404;2023-06-04T08:02:42;1.98;;;0.70;;
18879;SDS011;9572;52.378;13.404;2023-06-04T08:05:09;1.48;;;0.73;;
18879;SDS011;9572;52.378;13.404;2023-06-04T08:07:38;2.05;;;0.70;;
18879;SDS011;9572;52.378;13.404;2023-06-04T08:10:05;0.85;;;0.80;;
18879;SDS011;9572;52.378;13.404;2023-06-04T08:12:34;1.13;;;0.63;;
18879;SDS011;9572;52.378;13.404;2023-06-04T08:15:01;2.78;;;0.90;;
18879;SDS011;9572;52.378;13.404;2023-06-04T08:17:28;1.17;;;0.70;;
18879;SDS011;9572;52.378;13.404;2023-06-04T08:19:55;2.53;;;0.70;;
18879;SDS011;9572;52.378;13.404;2023-06-04T08:22:22;2.08;;;0.75;;
18879;SDS011;9572;52.378;13.404;2023-06-04T08:24:49;0.98;;;0.60;;
18879;SDS011;9572;52.378;13.404;2023-06-04T08:27:16;2.20;;;0.60;;
18879;SDS011;9572;52.378;13.404;2023-06-04T08:29:44;1.48;;;0.70;;
18879;SDS011;9572;52.378;13.404;2023-06-04T08:32:13;3.70;;;0.80;;
18879;SDS011;9572;52.378;13.404;2023-06-04T08:34:39;0.95;;;0.57;;
18879;SDS011;9572;52.378;13.404;2023-06-04T08:37:06;1.55;;;0.60;;
18879;SDS011;9572;52.378;13.404;2023-06-04T08:39:33;1.13;;;0.70;;
18879;SDS011;9572;52.378;13.404;2023-06-04T08:42:01;2.22;;;0.55;;
18879;SDS011;9572;52.378;13.404;2023-06-04T08:44:32;2.65;;;0.77;;
18879;SDS011;9572;52.378;13.404;2023-06-04T08:47:03;3.88;;;0.70;;
18879;SDS011;9572;52.378;13.404;2023-06-04T08:49:33;3.28;;;0.73;;
18879;SDS011;9572;52.378;13.404;2023-06-04T08:52:01;1.85;;;0.70;;
18879;SDS011;9572;52.378;13.404;2023-06-04T08:54:29;2.08;;;0.73;;
18879;SDS011;9572;52.378;13.404;2023-06-04T08:56:56;1.17;;;0.77;;
18879;SDS011;9572;52.378;13.404;2023-06-04T08:59:23;1.38;;;0.55;;
18879;SDS011;9572;52.378;13.404;2023-06-04T09:01:51;1.83;;;0.93;;
18879;SDS011;9572;52.378;13.404;2023-06-04T09:04:20;1.10;;;0.57;;
18879;SDS011;9572;52.378;13.404;2023-06-04T09:06:47;2.15;;;0.80;;
18879;SDS011;9572;52.378;13.404;2023-06-04T09:09:15;1.65;;;0.80;;
18879;SDS011;9572;52.378;13.404;2023-06-04T09:11:45;0.60;;;0.50;;
18879;SDS011;9572;52.378;13.404;2023-06-04T09:14:17;0.88;;;0.57;;
18879;SDS011;9572;52.378;13.404;2023-06-04T09:16:44;0.80;;;0.68;;
18879;SDS011;9572;52.378;13.404;2023-06-04T09:19:12;0.70;;;0.70;;
18879;SDS011;9572;52.378;13.404;2023-06-04T09:21:48;1.13;;;0.70;;
18879;SDS011;9572;52.378;13.404;2023-06-04T09:24:15;1.00;;;0.75;;
18879;SDS011;9572;52.378;13.404;2023-06-04T09:26:43;0.95;;;0.77;;
18879;SDS011;9572;52.378;13.404;2023-06-04T09:29:10;4.70;;;0.60;;
18879;SDS011;9572;52.378;13.404;2023-06-04T09:31:37;2.97;;;0.60;;
18879;SDS011;9572;52.378;13.404;2023-06-04T09:34:05;4.70;;;0.68;;
18879;SDS011;9572;52.378;13.404;2023-06-04T09:36:32;1.15;;;0.70;;
18879;SDS011;9572;52.378;13.404;2023-06-04T09:39:02;4.47;;;2.47;;
18879;SDS011;9572;52.378;13.404;2023-06-04T09:41:30;4.13;;;0.80;;
18879;SDS011;9572;52.378;13.404;2023-06-04T09:44:00;2.17;;;0.70;;
18879;SDS011;9572;52.378;13.404;2023-06-04T09:46:28;2.30;;;0.63;;
18879;SDS011;9572;52.378;13.404;2023-06-04T09:48:59;2.60;;;0.82;;
18879;SDS011;9572;52.378;13.404;2023-06-04T09:51:28;2.42;;;0.60;;
18879;SDS011;9572;52.378;13.404;2023-06-04T09:53:56;1.73;;;0.90;;
18879;SDS011;9572;52.378;13.404;2023-06-04T09:56:25;1.75;;;1.05;;
18879;SDS011;9572;52.378;13.404;2023-06-04T09:58:53;4.72;;;2.75;;
18879;SDS011;9572;52.378;13.404;2023-06-04T10:01:22;3.20;;;1.00;;
18879;SDS011;9572;52.378;13.404;2023-06-04T10:03:51;1.50;;;0.70;;
18879;SDS011;9572;52.378;13.404;2023-06-04T10:06:19;1.67;;;0.90;;
18879;SDS011;9572;52.378;13.404;2023-06-04T10:08:48;2.88;;;0.70;;
18879;SDS011;9572;52.378;13.404;2023-06-04T10:11:17;2.97;;;0.85;;
18879;SDS011;9572;52.378;13.404;2023-06-04T10:13:51;3.63;;;0.90;;
18879;SDS011;9572;52.378;13.404;2023-06-04T10:16:23;1.17;;;0.80;;
18879;SDS011;9572;52.378;13.404;2023-06-04T10:18:52;4.03;;;0.60;;
18879;SDS011;9572;52.378;13.404;2023-06-04T10:21:20;1.65;;;0.70;;
18879;SDS011;9572;52.378;13.404;2023-06-04T10:23:49;0.85;;;0.60;;
18879;SDS011;9572;52.378;13.404;2023-06-04T10:26:17;0.85;;;0.60;;
18879;SDS011;9572;52.378;13.404;2023-06-04T10:28:44;1.75;;;0.82;;
18879;SDS011;9572;52.378;13.404;2023-06-04T10:31:12;0.75;;;0.50;;
18879;SDS011;9572;52.378;13.404;2023-06-04T10:33:41;1.25;;;0.88;;
18879;SDS011;9572;52.378;13.404;2023-06-04T10:36:18;1.23;;;1.00;;
18879;SDS011;9572;52.378;13.404;2023-06-04T10:38:46;2.20;;;0.80;;
18879;SDS011;9572;52.378;13.404;2023-06-04T10:41:13;1.75;;;0.80;;
18879;SDS011;9572;52.378;13.404;2023-06-04T10:43:41;7.15;;;0.93;;
18879;SDS011;9572;52.378;13.404;2023-06-04T10:46:13;3.30;;;0.85;;
18879;SDS011;9572;52.378;13.404;2023-06-04T10:48:48;3.33;;;0.80;;
18879;SDS011;9572;52.378;13.404;2023-06-04T10:51:15;3.42;;;0.90;;
18879;SDS011;9572;52.378;13.404;2023-06-04T10:53:54;1.88;;;1.10;;
18879;SDS011;9572;52.378;13.404;2023-06-04T10:56:24;1.52;;;0.80;;
18879;SDS011;9572;52.378;13.404;2023-06-04T10:58:51;1.17;;;0.70;;
18879;SDS011;9572;52.378;13.404;2023-06-04T11:01:24;5.95;;;1.27;;
18879;SDS011;9572;52.378;13.404;2023-06-04T11:03:52;1.02;;;0.77;;
18879;SDS011;9572;52.378;13.404;2023-06-04T11:06:19;3.70;;;0.60;;
18879;SDS011;9572;52.378;13.404;2023-06-04T11:08:46;2.20;;;0.70;;
18879;SDS011;9572;52.378;13.404;2023-06-04T11:11:14;1.88;;;0.75;;
18879;SDS011;9572;52.378;13.404;2023-06-04T11:13:41;5.03;;;1.35;;
18879;SDS011;9572;52.378;13.404;2023-06-04T11:16:14;2.50;;;1.00;;
18879;SDS011;9572;52.378;13.404;2023-06-04T11:18:43;3.47;;;1.10;;
18879;SDS011;9572;52.378;13.404;2023-06-04T11:21:19;2.75;;;0.70;;
18879;SDS011;9572;52.378;13.404;2023-06-04T11:23:47;1.98;;;0.73;;
18879;SDS011;9572;52.378;13.404;2023-06-04T11:26:14;1.88;;;0.90;;
18879;SDS011;9572;52.378;13.404;2023-06-04T11:28:40;5.70;;;0.80;;
18879;SDS011;9572;52.378;13.404;2023-06-04T11:31:08;1.42;;;1.00;;
18879;SDS011;9572;52.378;13.404;2023-06-04T11:33:41;4.18;;;0.65;;
18879;SDS011;9572;52.378;13.404;2023-06-04T11:36:10;2.60;;;0.98;;
18879;SDS011;9572;52.378;13.404;2023-06-04T11:38:37;3.30;;;0.73;;
18879;SDS011;9572;52.378;13.404;2023-06-04T11:41:04;3.13;;;1.00;;
18879;SDS011;9572;52.378;13.404;2023-06-04T11:43:32;2.50;;;1.77;;
18879;SDS011;9572;52.378;13.404;2023-06-04T11:46:05;3.50;;;0.90;;
18879;SDS011;9572;52.378;13.404;2023-06-04T11:48:32;1.15;;;0.80;;
18879;SDS011;9572;52.378;13.404;2023-06-04T11:51:05;1.90;;;0.85;;
18879;SDS011;9572;52.378;13.404;2023-06-04T11:53:35;1.45;;;1.35;;
18879;SDS011;9572;52.378;13.404;2023-06-04T11:56:03;7.25;;;1.30;;
18879;SDS011;9572;52.378;13.404;2023-06-04T11:58:30;1.45;;;0.98;;
18879;SDS011;9572;52.378;13.404;2023-06-04T12:00:59;1.10;;;0.80;;
18879;SDS011;9572;52.378;13.404;2023-06-04T12:03:36;1.23;;;0.88;;
18879;SDS011;9572;52.378;13.404;2023-06-04T12:06:12;1.85;;;0.80;;
18879;SDS011;9572;52.378;13.404;2023-06-04T12:08:44;1.02;;;0.80;;
18879;SDS011;9572;52.378;13.404;2023-06-04T12:13:58;1.20;;;0.82;;
18879;SDS011;9572;52.378;13.404;2023-06-04T12:16:26;1.90;;;1.00;;
18879;SDS011;9572;52.378;13.404;2023-06-04T12:19:03;1.00;;;0.90;;
18879;SDS011;9572;52.378;13.404;2023-06-04T12:21:33;2.35;;;0.70;;
18879;SDS011;9572;52.378;13.404;2023-06-04T12:24:07;2.50;;;0.75;;
18879;SDS011;9572;52.378;13.404;2023-06-04T12:26:36;2.13;;;1.10;;
18879;SDS011;9572;52.378;13.404;2023-06-04T12:29:08;1.65;;;1.00;;
18879;SDS011;9572;52.378;13.404;2023-06-04T12:31:36;2.55;;;0.88;;
18879;SDS011;9572;52.378;13.404;2023-06-04T12:34:04;1.55;;;0.70;;
18879;SDS011;9572;52.378;13.404;2023-06-04T12:36:31;6.68;;;1.10;;
18879;SDS011;9572;52.378;13.404;2023-06-04T12:39:01;2.40;;;1.13;;
18879;SDS011;9572;52.378;13.404;2023-06-04T12:41:30;1.02;;;0.60;;
18879;SDS011;9572;52.378;13.404;2023-06-04T12:43:58;1.48;;;0.90;;
18879;SDS011;9572;52.378;13.404;2023-06-04T12:46:26;5.22;;;1.00;;
18879;SDS011;9572;52.378;13.404;2023-06-04T12:48:53;1.65;;;1.00;;
18879;SDS011;9572;52.378;13.404;2023-06-04T12:51:20;0.95;;;0.90;;
18879;SDS011;9572;52.378;13.404;2023-06-04T12:53:47;4.07;;;0.90;;
18879;SDS011;9572;52.378;13.404;2023-06-04T12:56:16;1.88;;;0.90;;
18879;SDS011;9572;52.378;13.404;2023-06-04T12:58:43;4.05;;;1.00;;
18879;SDS011;9572;52.378;13.404;2023-06-04T13:01:10;4.10;;;1.00;;
18879;SDS011;9572;52.378;13.404;2023-06-04T13:03:39;3.35;;;1.17;;
18879;SDS011;9572;52.378;13.404;2023-06-04T13:06:06;3.50;;;1.00;;
18879;SDS011;9572;52.378;13.404;2023-06-04T13:08:33;2.20;;;1.10;;
18879;SDS011;9572;52.378;13.404;2023-06-04T13:11:00;2.75;;;0.90;;
18879;SDS011;9572;52.378;13.404;2023-06-04T13:13:29;2.35;;;1.10;;
18879;SDS011;9572;52.378;13.404;2023-06-04T13:15:55;3.47;;;0.80;;
18879;SDS011;9572;52.378;13.404;2023-06-04T13:18:22;1.40;;;1.00;;
18879;SDS011;9572;52.378;13.404;2023-06-04T13:20:49;1.58;;;1.10;;
18879;SDS011;9572;52.378;13.404;2023-06-04T13:23:16;1.58;;;0.95;;
18879;SDS011;9572;52.378;13.404;2023-06-04T13:25:43;4.63;;;0.98;;
18879;SDS011;9572;52.378;13.404;2023-06-04T13:28:10;2.58;;;0.82;;
18879;SDS011;9572;52.378;13.404;2023-06-04T13:30:38;4.60;;;0.90;;
18879;SDS011;9572;52.378;13.404;2023-06-04T13:33:05;3.45;;;1.00;;
18879;SDS011;9572;52.378;13.404;2023-06-04T13:35:32;2.63;;;0.95;;
18879;SDS011;9572;52.378;13.404;2023-06-04T13:38:00;3.75;;;1.10;;
18879;SDS011;9572;52.378;13.404;2023-06-04T13:40:28;2.28;;;1.10;;
18879;SDS011;9572;52.378;13.404;2023-06-04T13:42:55;2.88;;;0.75;;
18879;SDS011;9572;52.378;13.404;2023-06-04T13:45:21;2.40;;;0.95;;
18879;SDS011;9572;52.378;13.404;2023-06-04T13:47:50;3.72;;;1.10;;
18879;SDS011;9572;52.378;13.404;2023-06-04T13:50:17;1.75;;;0.98;;
18879;SDS011;9572;52.378;13.404;2023-06-04T13:52:44;2.70;;;1.00;;
18879;SDS011;9572;52.378;13.404;2023-06-04T13:55:11;2.40;;;1.15;;
18879;SDS011;9572;52.378;13.404;2023-06-04T13:57:39;1.00;;;0.90;;
18879;SDS011;9572;52.378;13.404;2023-06-04T14:00:06;1.60;;;0.98;;
18879;SDS011;9572;52.378;13.404;2023-06-04T14:02:34;1.67;;;0.95;;
18879;SDS011;9572;52.378;13.404;2023-06-04T14:05:04;2.47;;;1.13;;
18879;SDS011;9572;52.378;13.404;2023-06-04T14:07:32;1.42;;;0.65;;
18879;SDS011;9572;52.378;13.404;2023-06-04T14:09:59;1.25;;;1.00;;
18879;SDS011;9572;52.378;13.404;2023-06-04T14:12:26;1.60;;;0.80;;
18879;SDS011;9572;52.378;13.404;2023-06-04T14:14:53;1.55;;;0.70;;
18879;SDS011;9572;52.378;13.404;2023-06-04T14:17:19;1.40;;;1.30;;
18879;SDS011;9572;52.378;13.404;2023-06-04T14:19:46;2.45;;;1.40;;
18879;SDS011;9572;52.378;13.404;2023-06-04T14:22:15;1.70;;;0.98;;
18879;SDS011;9572;52.378;13.404;2023-06-04T14:24:42;4.45;;;1.27;;
18879;SDS011;9572;52.378;13.404;2023-06-04T14:27:08;2.67;;;1.02;;
18879;SDS011;9572;52.378;13.404;2023-06-04T14:29:35;1.90;;;1.00;;
18879;SDS011;9572;52.378;13.404;2023-06-04T14:32:03;2.92;;;1.23;;
18879;SDS011;9572;52.378;13.404;2023-06-04T14:34:30;3.22;;;0.90;;
18879;SDS011;9572;52.378;13.404;2023-06-04T14:36:58;4.38;;;1.00;;
18879;SDS011;9572;52.378;13.404;2023-06-04T14:39:27;1.42;;;0.90;;
18879;SDS011;9572;52.378;13.404;2023-06-04T14:41:54;3.22;;;0.80;;
18879;SDS011;9572;52.378;13.404;2023-06-04T14:44:21;2.42;;;0.90;;
18879;SDS011;9572;52.378;13.404;2023-06-04T14:46:48;1.42;;;1.00;;
18879;SDS011;9572;52.378;13.404;2023-06-04T14:49:17;3.13;;;1.10;;
18879;SDS011;9572;52.378;13.404;2023-06-04T14:51:44;2.83;;;0.98;;
18879;SDS011;9572;52.378;13.404;2023-06-04T14:54:11;5.07;;;1.00;;